Time;durP1;ratioP1;P1;durP2;ratioP2;P2;SDS_P1;SDS_P2;PMS_P1;PMS_P2;Temp;Humidity;BMP_temperature;BMP_pressure;BME280_temperature;BME280_humidity;BME280_pressure;Samples;Min_cycle;Max_cycle;Signal;HPM_P1;HPM_P2
2024/01/01 00:01:16;;;;;;;20.67;13.33;;;4.60;99.90;;;;;;5053585;28;20234;-69
2024/01/01 00:06:15;;;;;;;15.80;10.73;;;4.70;99.90;;;;;;5016764;28;20218;-66
2024/01/01 00:08:40;;;;;;;15.20;11.73;;;4.70;99.90;;;;;;5025687;28;20504;-66
2024/01/01 00:11:06;;;;;;;14.93;10.93;;;4.80;99.90;;;;;;5016362;28;20179;-66
2024/01/01 00:13:31;;;;;;;10.73;9.60;;;4.80;99.90;;;;;;5024457;28;20576;-66
2024/01/01 00:15:57;;;;;;;16.27;10.20;;;4.80;99.90;;;;;;5030479;28;20663;-66
2024/01/01 00:18:22;;;;;;;15.53;12.10;;;4.80;99.90;;;;;;5031361;28;20262;-66
2024/01/01 00:20:48;;;;;;;15.53;10.00;;;4.80;99.90;;;;;;5030399;28;20186;-65
2024/01/01 00:23:13;;;;;;;16.00;12.70;;;4.70;99.90;;;;;;5031543;28;20239;-66
2024/01/01 00:25:39;;;;;;;18.23;12.27;;;4.70;99.90;;;;;;5031269;28;20217;-66
2024/01/01 00:28:06;;;;;;;13.43;10.60;;;4.80;99.90;;;;;;5030951;28;20265;-66
2024/01/01 00:30:32;;;;;;;19.50;13.80;;;4.80;99.90;;;;;;5030355;28;20587;-66
2024/01/01 00:32:57;;;;;;;20.80;13.43;;;4.90;99.90;;;;;;5030820;28;20583;-66
2024/01/01 00:35:23;;;;;;;22.83;15.30;;;4.90;99.90;;;;;;5031186;28;20194;-66
2024/01/01 00:37:48;;;;;;;22.90;12.97;;;4.90;99.90;;;;;;5030045;28;20187;-66
2024/01/01 00:40:15;;;;;;;16.87;12.40;;;4.90;99.90;;;;;;5030157;28;20600;-66
2024/01/01 00:42:42;;;;;;;15.00;12.53;;;4.90;99.90;;;;;;5031139;28;20184;-66
2024/01/01 00:45:09;;;;;;;12.30;11.00;;;5.00;99.90;;;;;;5030930;28;20468;-66
2024/01/01 00:47:34;;;;;;;15.17;11.23;;;5.00;99.90;;;;;;5030652;28;20465;-66
2024/01/01 00:50:00;;;;;;;15.77;10.97;;;4.90;99.90;;;;;;5031115;28;20487;-66
2024/01/01 00:52:26;;;;;;;13.87;10.53;;;4.80;99.90;;;;;;5029878;28;20185;-66
2024/01/01 00:54:52;;;;;;;14.47;10.67;;;4.80;99.90;;;;;;5030880;28;20618;-65
2024/01/01 00:57:17;;;;;;;12.80;10.83;;;4.70;99.90;;;;;;5028700;28;20742;-65
2024/01/01 00:59:43;;;;;;;15.77;10.83;;;4.70;99.90;;;;;;5031847;28;20420;-66
2024/01/01 01:02:08;;;;;;;12.93;9.80;;;4.60;99.90;;;;;;5027177;28;20761;-66
2024/01/01 01:04:34;;;;;;;14.63;10.90;;;4.60;99.90;;;;;;5030037;28;20218;-66
2024/01/01 01:06:59;;;;;;;14.20;10.37;;;4.60;99.90;;;;;;5030626;28;20709;-65
2024/01/01 01:09:25;;;;;;;18.23;11.83;;;4.50;99.90;;;;;;5030817;28;20201;-66
2024/01/01 01:11:51;;;;;;;14.50;10.17;;;4.50;99.90;;;;;;5030918;28;20174;-65
2024/01/01 01:14:16;;;;;;;16.97;11.67;;;4.50;99.90;;;;;;5030491;28;20224;-66
2024/01/01 01:16:42;;;;;;;15.40;10.43;;;4.50;99.90;;;;;;5031437;28;20170;-65
2024/01/01 01:19:07;;;;;;;19.00;11.63;;;4.50;99.90;;;;;;5029640;28;20191;-66
2024/01/01 01:21:33;;;;;;;20.47;13.27;;;4.50;99.90;;;;;;5030874;28;20193;-66
2024/01/01 01:23:58;;;;;;;17.87;13.03;;;4.60;99.90;;;;;;5030589;28;20209;-66
2024/01/01 01:26:24;;;;;;;17.07;11.53;;;4.60;99.90;;;;;;5030547;28;20175;-65
2024/01/01 01:28:50;;;;;;;18.60;12.00;;;4.70;99.90;;;;;;5029464;28;20229;-66
2024/01/01 01:31:16;;;;;;;18.20;12.53;;;4.70;99.90;;;;;;5030368;28;20522;-66
2024/01/01 01:33:41;;;;;;;19.93;10.50;;;4.80;99.90;;;;;;5030431;28;20197;-66
2024/01/01 01:36:08;;;;;;;15.27;10.87;;;4.90;99.90;;;;;;5029768;28;20179;-66
2024/01/01 01:38:35;;;;;;;12.73;10.00;;;4.80;99.90;;;;;;5030330;28;20240;-66
2024/01/01 01:41:01;;;;;;;14.13;9.00;;;4.80;99.90;;;;;;5029805;28;20447;-66
2024/01/01 01:43:27;;;;;;;10.27;7.73;;;4.90;99.90;;;;;;5030698;28;20542;-66
2024/01/01 01:45:54;;;;;;;11.83;6.67;;;4.90;99.90;;;;;;5030590;28;20202;-66
2024/01/01 01:48:21;;;;;;;10.40;7.37;;;5.00;99.90;;;;;;5030254;28;20217;-65
2024/01/01 01:50:48;;;;;;;9.30;6.90;;;5.00;99.90;;;;;;5028617;28;20567;-66
2024/01/01 01:53:14;;;;;;;11.20;6.87;;;5.10;99.90;;;;;;5031387;28;20795;-66
2024/01/01 01:55:45;;;;;;;8.60;6.97;;;5.10;99.90;;;;;;5011862;28;20524;-66
2024/01/01 01:58:11;;;;;;;15.43;8.00;;;5.10;99.90;;;;;;5028058;28;20261;-65
2024/01/01 02:00:38;;;;;;;8.57;7.40;;;5.10;99.90;;;;;;5025382;28;20527;-68
2024/01/01 02:03:06;;;;;;;9.97;7.40;;;5.10;99.90;;;;;;5025718;28;20197;-66
2024/01/01 02:05:32;;;;;;;10.13;8.00;;;5.10;99.90;;;;;;5030151;28;20449;-65
2024/01/01 02:07:59;;;;;;;11.53;7.40;;;5.10;99.90;;;;;;5011488;28;20433;-66
2024/01/01 02:10:25;;;;;;;10.50;7.90;;;5.10;99.90;;;;;;5025211;28;20484;-66
2024/01/01 02:12:50;;;;;;;10.07;6.13;;;5.10;99.90;;;;;;5023146;28;20417;-66
2024/01/01 02:15:16;;;;;;;16.83;7.97;;;5.10;99.90;;;;;;5033528;28;20197;-66
2024/01/01 02:17:41;;;;;;;8.53;6.70;;;5.00;99.90;;;;;;5034569;28;20162;-66
2024/01/01 02:20:07;;;;;;;7.07;6.00;;;5.10;99.90;;;;;;5016329;28;20189;-66
2024/01/01 02:22:39;;;;;;;12.17;6.90;;;5.00;99.90;;;;;;5016073;28;20181;-66
2024/01/01 02:25:06;;;;;;;8.83;6.43;;;5.00;99.90;;;;;;5014904;28;20190;-65
2024/01/01 02:27:31;;;;;;;8.33;6.03;;;5.00;99.90;;;;;;5016297;28;20446;-65
2024/01/01 02:29:57;;;;;;;9.93;5.37;;;5.00;99.90;;;;;;5032669;28;20561;-66
2024/01/01 02:32:22;;;;;;;8.37;6.10;;;5.00;99.90;;;;;;5030337;28;20170;-66
2024/01/01 02:34:48;;;;;;;11.03;6.70;;;5.00;99.90;;;;;;5014670;28;20675;-65
2024/01/01 02:37:14;;;;;;;7.80;5.27;;;5.00;99.90;;;;;;5025435;28;20186;-66
2024/01/01 02:39:39;;;;;;;15.87;6.90;;;4.90;99.90;;;;;;5034046;28;20179;-66
2024/01/01 02:42:05;;;;;;;8.93;5.33;;;5.00;99.90;;;;;;5025320;28;20186;-66
2024/01/01 02:44:30;;;;;;;7.90;5.30;;;5.00;99.90;;;;;;5020743;28;20207;-66
2024/01/01 02:46:56;;;;;;;8.40;6.00;;;5.00;99.90;;;;;;5014647;28;20539;-66
2024/01/01 02:49:21;;;;;;;7.77;5.77;;;5.00;99.90;;;;;;5016761;28;20202;-66
2024/01/01 02:51:47;;;;;;;10.63;5.73;;;5.00;99.90;;;;;;5014386;28;20217;-66
2024/01/01 02:54:12;;;;;;;9.83;6.90;;;5.00;99.90;;;;;;5027632;28;20294;-66
2024/01/01 02:56:38;;;;;;;10.03;6.43;;;5.00;99.90;;;;;;5033403;28;20178;-65
2024/01/01 02:59:04;;;;;;;10.60;6.37;;;4.90;99.90;;;;;;5033784;28;20186;-66
2024/01/01 03:01:29;;;;;;;7.57;5.70;;;4.90;99.90;;;;;;5032362;28;20209;-65
2024/01/01 03:03:55;;;;;;;11.80;7.27;;;4.80;99.90;;;;;;5033724;28;20174;-66
2024/01/01 03:06:21;;;;;;;8.20;6.20;;;4.80;99.90;;;;;;5033907;28;20177;-65
2024/01/01 03:08:46;;;;;;;11.63;6.60;;;4.80;99.90;;;;;;5033691;28;20201;-66
2024/01/01 03:11:12;;;;;;;11.70;6.33;;;4.80;99.90;;;;;;5031370;28;20202;-66
2024/01/01 03:13:37;;;;;;;10.70;6.17;;;4.80;99.90;;;;;;5013980;28;20540;-65
2024/01/01 03:16:03;;;;;;;10.37;6.77;;;4.80;99.90;;;;;;5014919;28;20202;-65
2024/01/01 03:18:29;;;;;;;10.30;6.83;;;4.80;99.90;;;;;;5016606;28;20313;-66
2024/01/01 03:20:55;;;;;;;8.77;6.13;;;4.90;99.90;;;;;;5013816;28;20246;-66
2024/01/01 03:23:20;;;;;;;9.37;5.87;;;4.90;99.90;;;;;;5032661;28;20182;-65
2024/01/01 03:25:46;;;;;;;7.73;5.40;;;4.90;99.90;;;;;;5032514;28;20954;-65
2024/01/01 03:28:12;;;;;;;8.87;6.20;;;4.90;99.90;;;;;;5033098;28;20182;-66
2024/01/01 03:30:37;;;;;;;8.80;5.40;;;4.90;99.90;;;;;;5033284;28;20162;-65
2024/01/01 03:33:03;;;;;;;7.93;5.77;;;4.90;99.90;;;;;;5031913;28;20718;-66
2024/01/01 03:35:32;;;;;;;7.83;5.60;;;4.90;99.90;;;;;;5033293;28;20186;-66
2024/01/01 03:37:58;;;;;;;12.50;5.47;;;5.00;99.90;;;;;;5032983;28;20173;-65
2024/01/01 03:40:24;;;;;;;8.07;4.73;;;5.10;99.90;;;;;;5033261;28;20918;-66
2024/01/01 03:42:50;;;;;;;10.13;6.07;;;5.20;99.90;;;;;;5031608;28;20421;-66
2024/01/01 03:45:15;;;;;;;7.23;4.40;;;5.20;99.90;;;;;;5033157;28;20182;-65
2024/01/01 03:47:41;;;;;;;7.17;4.70;;;5.20;99.90;;;;;;5031226;28;20261;-66
2024/01/01 03:50:07;;;;;;;5.97;4.20;;;5.30;99.90;;;;;;5033154;28;20612;-66
2024/01/01 03:52:33;;;;;;;4.53;3.73;;;5.20;99.90;;;;;;5020033;28;20178;-66
2024/01/01 03:54:58;;;;;;;5.97;3.70;;;5.30;99.90;;;;;;5032972;28;20562;-65
2024/01/01 03:57:24;;;;;;;7.80;4.97;;;5.30;99.90;;;;;;5032687;28;20432;-66
2024/01/01 03:59:49;;;;;;;6.63;4.80;;;5.30;99.90;;;;;;5033057;28;20178;-65
2024/01/01 04:02:15;;;;;;;5.53;4.30;;;5.20;99.90;;;;;;5031049;28;20736;-65
2024/01/01 04:04:44;;;;;;;5.73;4.30;;;5.20;99.90;;;;;;5032625;28;20552;-66
2024/01/01 04:07:10;;;;;;;5.13;3.90;;;5.10;99.90;;;;;;5032533;28;20205;-66
2024/01/01 04:09:36;;;;;;;3.87;3.47;;;5.00;99.90;;;;;;5032637;28;20996;-66
2024/01/01 04:12:01;;;;;;;5.37;3.27;;;5.00;99.90;;;;;;5024221;28;20422;-66
2024/01/01 04:14:27;;;;;;;6.33;3.50;;;5.00;99.90;;;;;;5012895;28;20205;-66
2024/01/01 04:16:52;;;;;;;4.83;3.50;;;5.00;99.90;;;;;;5016626;28;20647;-66
2024/01/01 04:19:18;;;;;;;7.50;3.67;;;4.90;99.90;;;;;;5032569;28;20178;-66
2024/01/01 04:21:43;;;;;;;3.20;2.93;;;4.90;99.90;;;;;;5013294;28;20201;-65
2024/01/01 04:24:09;;;;;;;5.37;2.87;;;4.90;99.90;;;;;;5032491;28;20264;-66
2024/01/01 04:26:37;;;;;;;7.80;3.33;;;4.90;99.90;;;;;;5032216;28;20174;-66
2024/01/01 04:29:02;;;;;;;6.40;3.10;;;5.00;99.90;;;;;;5032415;28;20507;-65
2024/01/01 04:31:28;;;;;;;4.47;3.00;;;5.00;99.90;;;;;;5030117;28;20814;-66
2024/01/01 04:33:54;;;;;;;5.27;3.10;;;5.00;99.90;;;;;;5032345;28;20852;-66
2024/01/01 04:36:21;;;;;;;4.70;2.43;;;5.00;99.90;;;;;;5031916;28;20174;-65
2024/01/01 04:38:46;;;;;;;2.70;2.40;;;5.00;99.90;;;;;;5014015;28;20453;-66
2024/01/01 04:41:12;;;;;;;5.77;2.67;;;4.90;99.90;;;;;;5025546;28;20460;-66
2024/01/01 04:43:39;;;;;;;3.47;2.10;;;4.90;99.90;;;;;;5032137;28;20175;-66
2024/01/01 04:46:04;;;;;;;6.43;2.83;;;4.90;99.90;;;;;;5031590;28;20244;-66
2024/01/01 04:48:30;;;;;;;3.90;1.97;;;4.80;99.90;;;;;;5030832;28;20460;-66
2024/01/01 04:50:55;;;;;;;3.60;1.97;;;4.80;99.90;;;;;;5031618;28;20519;-66
2024/01/01 04:53:21;;;;;;;3.63;2.47;;;4.80;99.90;;;;;;5013649;28;20193;-66
2024/01/01 04:55:46;;;;;;;4.47;1.83;;;4.80;99.90;;;;;;5020270;28;20193;-65
2024/01/01 04:58:12;;;;;;;4.20;2.23;;;4.80;99.90;;;;;;5031372;28;20178;-66
2024/01/01 05:00:38;;;;;;;4.20;2.07;;;4.80;99.90;;;;;;5031570;28;20170;-66
2024/01/01 05:03:04;;;;;;;6.30;2.13;;;4.80;99.90;;;;;;5029638;28;20615;-66
2024/01/01 05:05:29;;;;;;;2.33;1.87;;;4.80;99.90;;;;;;5031829;28;20233;-65
2024/01/01 05:07:55;;;;;;;3.90;2.00;;;4.80;99.90;;;;;;5029657;28;20503;-66
2024/01/01 05:10:20;;;;;;;2.60;1.80;;;4.80;99.90;;;;;;5031827;28;20202;-66
2024/01/01 05:12:46;;;;;;;3.43;1.70;;;4.80;99.90;;;;;;5030766;28;20178;-66
2024/01/01 05:15:11;;;;;;;6.50;2.07;;;4.70;99.90;;;;;;5031601;28;20198;-65
2024/01/01 05:17:37;;;;;;;3.33;1.47;;;4.70;99.90;;;;;;5029716;28;20182;-66
2024/01/01 05:20:03;;;;;;;3.33;1.30;;;4.90;99.90;;;;;;5031757;28;20178;-66
2024/01/01 05:22:30;;;;;;;1.50;1.10;;;4.90;99.90;;;;;;5031122;28;20254;-66
2024/01/01 05:24:55;;;;;;;2.00;1.27;;;5.00;99.90;;;;;;5031599;28;20447;-66
2024/01/01 05:27:21;;;;;;;4.03;1.97;;;5.00;99.90;;;;;;5031393;28;20488;-66
2024/01/01 05:29:46;;;;;;;3.30;1.00;;;4.90;99.90;;;;;;5031059;28;20247;-66
2024/01/01 05:32:12;;;;;;;4.90;2.10;;;4.90;99.90;;;;;;5030885;28;20178;-66
2024/01/01 05:34:39;;;;;;;5.17;1.90;;;4.80;99.90;;;;;;5031309;28;20281;-66
2024/01/01 05:37:04;;;;;;;4.40;1.53;;;4.80;99.90;;;;;;5031380;28;20689;-66
2024/01/01 05:39:30;;;;;;;1.40;1.27;;;4.70;99.90;;;;;;5031380;28;20507;-66
2024/01/01 05:41:55;;;;;;;5.70;1.30;;;4.60;99.90;;;;;;5031459;28;20177;-66
2024/01/01 05:44:21;;;;;;;3.70;1.50;;;4.50;99.90;;;;;;5023942;28;20574;-66
2024/01/01 05:46:47;;;;;;;2.10;1.23;;;4.50;99.90;;;;;;5011977;28;20183;-65
2024/01/01 05:49:12;;;;;;;5.10;1.70;;;4.40;99.90;;;;;;5033449;28;20715;-66
2024/01/01 05:51:38;;;;;;;4.60;2.13;;;4.30;99.90;;;;;;5033426;28;20643;-66
2024/01/01 05:54:03;;;;;;;2.30;1.20;;;4.30;99.90;;;;;;5035088;28;20190;-66
2024/01/01 05:56:29;;;;;;;5.10;1.60;;;4.20;99.90;;;;;;5034529;28;20857;-66
2024/01/01 05:58:54;;;;;;;2.50;1.70;;;4.30;99.90;;;;;;5035026;28;20188;-66
2024/01/01 06:01:19;;;;;;;1.93;1.27;;;4.30;99.90;;;;;;5030224;28;20183;-66
2024/01/01 06:03:46;;;;;;;5.43;1.50;;;4.30;99.90;;;;;;5034634;28;20262;-66
2024/01/01 06:06:12;;;;;;;8.07;1.77;;;4.40;99.90;;;;;;5079171;22;20235;-68
2024/01/01 06:08:37;;;;;;;4.47;1.40;;;4.50;99.90;;;;;;5060339;28;20543;-68
2024/01/01 06:11:03;;;;;;;2.00;1.20;;;4.50;99.90;;;;;;5055116;28;20423;-68
2024/01/01 06:13:28;;;;;;;2.47;1.37;;;4.60;99.90;;;;;;5059615;28;20208;-68
2024/01/01 06:15:54;;;;;;;4.83;1.70;;;4.60;99.90;;;;;;5067435;28;20189;-68
2024/01/01 06:18:20;;;;;;;3.03;1.27;;;4.60;99.90;;;;;;5054705;28;20169;-68
2024/01/01 06:20:46;;;;;;;6.07;1.23;;;4.70;99.90;;;;;;5067188;28;20172;-68
2024/01/01 06:23:11;;;;;;;6.27;1.53;;;4.70;99.90;;;;;;5060061;28;20907;-68
2024/01/01 06:25:37;;;;;;;2.03;1.00;;;4.80;99.90;;;;;;5058200;28;20204;-68
2024/01/01 06:28:02;;;;;;;3.60;1.27;;;4.90;99.90;;;;;;5059983;28;20638;-68
2024/01/01 06:30:30;;;;;;;2.40;1.47;;;4.80;99.90;;;;;;5074399;28;20246;-68
2024/01/01 06:32:58;;;;;;;8.23;1.70;;;4.80;99.90;;;;;;5057596;28;20694;-68
2024/01/01 06:35:28;;;;;;;1.87;1.53;;;4.80;99.90;;;;;;5060231;28;20468;-68
2024/01/01 06:37:54;;;;;;;1.73;1.20;;;4.80;99.90;;;;;;5056254;28;20430;-68
2024/01/01 06:40:19;;;;;;;3.37;1.13;;;4.80;99.90;;;;;;5041251;28;20419;-68
2024/01/01 06:42:45;;;;;;;5.80;1.90;;;4.80;99.90;;;;;;5061144;28;20241;-69
2024/01/01 06:45:10;;;;;;;9.03;1.57;;;4.90;99.90;;;;;;5054677;28;20189;-68
2024/01/01 06:47:36;;;;;;;4.13;1.33;;;4.90;99.90;;;;;;5062124;28;20646;-68
2024/01/01 06:50:02;;;;;;;2.17;1.20;;;5.00;99.90;;;;;;5054125;28;20686;-68
2024/01/01 06:52:28;;;;;;;3.70;1.83;;;4.90;99.90;;;;;;5054487;28;20564;-69
2024/01/01 06:54:53;;;;;;;5.37;1.73;;;4.80;99.90;;;;;;5055058;28;20447;-69
2024/01/01 06:57:19;;;;;;;3.77;1.87;;;4.70;99.90;;;;;;5074033;28;20169;-68
2024/01/01 06:59:44;;;;;;;6.77;1.70;;;4.70;99.90;;;;;;5067885;28;20516;-69
2024/01/01 07:02:10;;;;;;;2.50;1.60;;;4.60;99.90;;;;;;5065697;28;20181;-68
2024/01/01 07:04:35;;;;;;;5.00;2.60;;;4.50;99.90;;;;;;5051905;28;20209;-68
2024/01/01 07:07:03;;;;;;;2.07;1.90;;;4.50;99.90;;;;;;5068641;28;20173;-68
2024/01/01 07:09:28;;;;;;;7.33;1.73;;;4.50;99.90;;;;;;5073848;28;20217;-68
2024/01/01 07:11:59;;;;;;;2.27;1.23;;;4.40;99.90;;;;;;5061233;28;20841;-68
2024/01/01 07:14:25;;;;;;;4.17;1.40;;;4.40;99.90;;;;;;5053816;28;20181;-69
2024/01/01 07:16:54;;;;;;;8.57;1.50;;;4.40;99.90;;;;;;5054992;28;20793;-68
2024/01/01 07:19:19;;;;;;;2.70;1.50;;;4.40;99.90;;;;;;5061072;28;20174;-69
2024/01/01 07:21:46;;;;;;;4.13;1.30;;;4.40;99.90;;;;;;5061775;28;20447;-68
2024/01/01 07:24:12;;;;;;;4.10;1.73;;;4.40;99.90;;;;;;5053511;28;20169;-68
2024/01/01 07:26:37;;;;;;;4.07;1.37;;;4.40;99.90;;;;;;5053423;28;20809;-68
2024/01/01 07:29:03;;;;;;;3.37;1.40;;;4.40;99.90;;;;;;5053426;28;21188;-68
2024/01/01 07:31:28;;;;;;;4.57;1.70;;;4.40;99.90;;;;;;5062150;28;20172;-68
2024/01/01 07:33:54;;;;;;;6.57;1.60;;;4.40;99.90;;;;;;5055029;28;20185;-68
2024/01/01 07:36:20;;;;;;;5.50;2.10;;;4.40;99.90;;;;;;5071660;28;20223;-69
2024/01/01 07:38:45;;;;;;;2.13;1.70;;;4.40;99.90;;;;;;5039234;28;20854;-69
2024/01/01 07:41:11;;;;;;;6.87;1.40;;;4.40;99.90;;;;;;5067115;28;20184;-68
2024/01/01 07:43:37;;;;;;;4.47;1.80;;;4.40;99.90;;;;;;5053141;28;20178;-68
2024/01/01 07:46:03;;;;;;;6.83;1.50;;;4.50;99.90;;;;;;5053020;28;21029;-68
2024/01/01 07:48:28;;;;;;;5.47;1.47;;;4.50;99.90;;;;;;5053200;28;20197;-69
2024/01/01 07:50:54;;;;;;;4.20;1.07;;;4.50;99.90;;;;;;5052954;28;20631;-68
2024/01/01 07:53:19;;;;;;;1.80;0.80;;;4.60;99.90;;;;;;5062527;28;20173;-69
2024/01/01 07:55:45;;;;;;;5.43;1.53;;;4.80;99.90;;;;;;5073005;28;20268;-69
2024/01/01 07:58:11;;;;;;;5.83;1.57;;;5.10;99.90;;;;;;5072907;28;20705;-68
2024/01/01 08:00:36;;;;;;;4.20;1.40;;;5.20;99.90;;;;;;5053228;28;20432;-68
2024/01/01 08:03:02;;;;;;;9.33;1.57;;;5.20;99.90;;;;;;5053651;28;20571;-69
2024/01/01 08:05:28;;;;;;;5.07;1.43;;;5.60;99.90;;;;;;5061088;28;20299;-69
2024/01/01 08:07:57;;;;;;;2.47;1.40;;;6.00;99.90;;;;;;5055791;28;20971;-68
2024/01/01 08:10:23;;;;;;;7.20;1.53;;;6.20;99.90;;;;;;5072637;28;20193;-69
2024/01/01 08:12:49;;;;;;;5.10;1.27;;;6.00;99.90;;;;;;5054604;28;20986;-69
2024/01/01 08:15:14;;;;;;;6.87;1.40;;;5.80;99.90;;;;;;5052501;28;20436;-68
2024/01/01 08:17:40;;;;;;;3.97;1.70;;;5.50;99.90;;;;;;5052273;28;20177;-68
2024/01/01 08:20:06;;;;;;;6.87;1.63;;;5.30;99.90;;;;;;5052586;28;20227;-68
2024/01/01 08:22:31;;;;;;;4.90;1.60;;;5.20;99.90;;;;;;5052377;28;20219;-69
2024/01/01 08:24:57;;;;;;;3.83;1.37;;;5.70;99.90;;;;;;5052233;28;20451;-68
2024/01/01 08:27:22;;;;;;;5.00;1.07;;;6.30;99.90;;;;;;5052368;28;20174;-69
2024/01/01 08:29:48;;;;;;;3.53;1.60;;;7.00;99.90;;;;;;5052304;28;20198;-68
2024/01/01 08:32:13;;;;;;;3.13;1.63;;;7.30;99.90;;;;;;5052087;28;20173;-68
2024/01/01 08:34:39;;;;;;;7.17;1.47;;;7.80;99.90;;;;;;5052339;28;20200;-69
2024/01/01 08:37:04;;;;;;;6.73;1.50;;;8.60;99.90;;;;;;5052148;28;20635;-69
2024/01/01 08:39:30;;;;;;;4.50;1.90;;;8.90;99.90;;;;;;5052323;28;20173;-69
2024/01/01 08:41:55;;;;;;;2.97;1.50;;;9.10;99.90;;;;;;5052138;28;20173;-68
2024/01/01 08:44:21;;;;;;;3.50;1.50;;;9.50;99.90;;;;;;5052167;28;20177;-68
2024/01/01 08:46:46;;;;;;;3.03;1.43;;;9.90;99.90;;;;;;5051766;28;20177;-68
2024/01/01 08:49:12;;;;;;;6.13;1.80;;;10.10;99.90;;;;;;5052140;28;20204;-69
2024/01/01 08:51:37;;;;;;;2.00;1.33;;;10.40;99.90;;;;;;5052049;28;20251;-68
2024/01/01 08:54:07;;;;;;;3.13;2.43;;;10.10;99.90;;;;;;5052012;28;20165;-68
2024/01/01 08:56:33;;;;;;;4.60;2.60;;;9.70;99.90;;;;;;5059772;28;20248;-68
2024/01/01 08:58:58;;;;;;;5.40;2.40;;;9.10;99.90;;;;;;5070747;28;20517;-68
2024/01/01 09:01:24;;;;;;;1.97;1.57;;;8.50;99.90;;;;;;5053920;28;20178;-68
2024/01/01 09:03:49;;;;;;;3.40;1.30;;;8.90;99.90;;;;;;5055984;28;20265;-68
2024/01/01 09:06:15;;;;;;;4.30;1.63;;;9.60;99.90;;;;;;5051621;28;20228;-68
2024/01/01 09:08:40;;;;;;;2.77;1.23;;;10.00;99.90;;;;;;5050395;28;20307;-68
2024/01/01 09:11:06;;;;;;;2.83;1.50;;;10.30;99.90;;;;;;5054125;28;20184;-68
2024/01/01 09:13:32;;;;;;;5.90;3.33;;;10.20;99.90;;;;;;5071921;28;20677;-68
2024/01/01 09:15:57;;;;;;;4.00;1.83;;;10.30;99.90;;;;;;5057275;28;20185;-68
2024/01/01 09:18:23;;;;;;;4.17;1.70;;;10.60;99.90;;;;;;5059559;28;20165;-68
2024/01/01 09:20:50;;;;;;;3.40;1.50;;;11.00;99.90;;;;;;5053216;28;20230;-69
2024/01/01 09:23:15;;;;;;;2.23;1.07;;;12.10;99.90;;;;;;5053042;28;20188;-68
2024/01/01 09:25:41;;;;;;;2.70;1.37;;;12.70;99.90;;;;;;5055687;28;20801;-68
2024/01/01 09:28:07;;;;;;;2.47;2.00;;;12.40;99.90;;;;;;5042197;28;20275;-69
2024/01/01 09:30:33;;;;;;;3.87;1.50;;;12.40;99.90;;;;;;5055694;28;20285;-68
2024/01/01 09:32:58;;;;;;;3.57;1.93;;;12.00;99.90;;;;;;5056072;28;20455;-68
2024/01/01 09:35:24;;;;;;;3.60;1.47;;;11.30;99.90;;;;;;5067264;28;20192;-69
2024/01/01 09:37:53;;;;;;;2.93;1.33;;;10.90;99.90;;;;;;5075426;28;20173;-68
2024/01/01 09:40:20;;;;;;;2.67;1.17;;;10.30;99.90;;;;;;5063861;28;20169;-68
2024/01/01 09:42:47;;;;;;;1.90;1.40;;;10.60;99.90;;;;;;5055311;28;20452;-68
2024/01/01 09:45:12;;;;;;;4.30;1.73;;;11.20;99.90;;;;;;5055155;28;20447;-68
2024/01/01 09:47:40;;;;;;;4.53;1.43;;;11.40;99.90;;;;;;5055327;28;20411;-68
2024/01/01 09:50:06;;;;;;;2.50;1.33;;;11.60;99.90;;;;;;5055392;28;20276;-68
2024/01/01 09:52:31;;;;;;;2.00;1.50;;;12.30;99.90;;;;;;5061108;28;20470;-68
2024/01/01 09:54:58;;;;;;;2.20;1.10;;;11.90;99.90;;;;;;5057248;28;20487;-69
2024/01/01 09:57:23;;;;;;;2.37;1.40;;;12.00;99.90;;;;;;5054969;28;20174;-68
2024/01/01 09:59:50;;;;;;;3.03;1.30;;;12.20;99.90;;;;;;5066227;28;20480;-68
2024/01/01 10:02:15;;;;;;;2.70;1.30;;;11.60;99.90;;;;;;5062498;28;20182;-68
2024/01/01 10:04:41;;;;;;;2.87;1.17;;;11.70;99.90;;;;;;5054557;28;20466;-68
2024/01/01 10:07:06;;;;;;;2.27;1.33;;;12.70;99.90;;;;;;5060447;28;20698;-70
2024/01/01 10:09:32;;;;;;;1.47;1.03;;;12.80;99.90;;;;;;5072389;28;20688;-68
2024/01/01 10:12:09;;;;;;;1.83;1.10;;;12.80;99.90;;;;;;5074013;28;20256;-68
2024/01/01 10:14:49;;;;;;;2.50;1.20;;;12.90;99.90;;;;;;5072084;28;20858;-68
2024/01/01 10:17:19;;;;;;;2.03;1.10;;;13.00;99.90;;;;;;5054754;28;20775;-68
2024/01/01 10:20:00;;;;;;;1.87;1.70;;;13.00;99.90;;;;;;5054911;28;20420;-68
2024/01/01 10:22:30;;;;;;;1.53;1.30;;;12.50;99.90;;;;;;5054650;28;20510;-68
2024/01/01 10:25:09;;;;;;;3.97;1.57;;;12.00;99.90;;;;;;5069412;28;20447;-68
2024/01/01 10:27:36;;;;;;;2.20;1.10;;;11.70;99.90;;;;;;5074544;28;20445;-68
2024/01/01 10:30:02;;;;;;;1.57;1.10;;;12.10;99.90;;;;;;5055791;28;20439;-68
2024/01/01 10:32:30;;;;;;;2.43;1.37;;;12.20;99.90;;;;;;5054361;28;20947;-68
2024/01/01 10:34:57;;;;;;;4.93;1.30;;;12.40;99.90;;;;;;5053355;28;20444;-68
2024/01/01 10:37:25;;;;;;;3.37;1.53;;;12.00;99.90;;;;;;5054386;28;20460;-68
2024/01/01 10:39:51;;;;;;;2.03;1.70;;;12.40;99.90;;;;;;5054439;28;20507;-68
2024/01/01 10:42:17;;;;;;;9.43;1.90;;;13.30;99.90;;;;;;5054125;28;20432;-68
2024/01/01 10:44:43;;;;;;;3.60;2.30;;;13.90;99.90;;;;;;5061067;28;20447;-69
2024/01/01 10:47:09;;;;;;;5.17;1.57;;;14.40;99.90;;;;;;5055695;28;20552;-69
2024/01/01 10:49:41;;;;;;;2.97;1.77;;;13.90;99.90;;;;;;5054234;28;20201;-69
2024/01/01 10:52:36;;;;;;;6.40;1.70;;;13.40;99.90;;;;;;5054011;28;20991;-68
2024/01/01 10:55:05;;;;;;;3.03;1.90;;;12.80;99.90;;;;;;5054204;28;20435;-69
2024/01/01 10:57:58;;;;;;;8.53;1.87;;;12.60;99.90;;;;;;5056778;28;21055;-69
2024/01/01 11:00:47;;;;;;;3.93;1.70;;;11.80;99.90;;;;;;5060292;28;20818;-70
2024/01/01 11:03:14;;;;;;;5.93;1.77;;;10.80;99.90;;;;;;5056732;28;20827;-68
2024/01/01 11:05:41;;;;;;;4.00;1.77;;;10.50;99.90;;;;;;5053775;28;20455;-69
2024/01/01 11:08:06;;;;;;;7.70;1.60;;;10.40;99.90;;;;;;5053841;28;20415;-69
2024/01/01 11:10:49;;;;;;;4.57;1.57;;;10.40;99.90;;;;;;5053805;28;20970;-69
2024/01/01 11:13:27;;;;;;;7.47;1.87;;;10.40;99.90;;;;;;5053785;28;20177;-69
2024/01/01 11:16:00;;;;;;;9.80;1.73;;;10.30;99.90;;;;;;5053704;28;20506;-68
2024/01/01 11:18:33;;;;;;;8.53;3.20;;;10.10;99.90;;;;;;5053910;28;20419;-69
2024/01/01 11:21:01;;;;;;;5.83;1.73;;;9.70;99.90;;;;;;5053705;28;20478;-69
2024/01/01 11:23:47;;;;;;;7.97;2.00;;;9.60;99.90;;;;;;5053638;28;20414;-69
2024/01/01 11:26:34;;;;;;;5.77;1.57;;;9.60;99.90;;;;;;5053547;28;20431;-69
2024/01/01 11:29:26;;;;;;;5.83;2.57;;;9.80;99.90;;;;;;5035553;28;20444;-69
2024/01/01 11:32:03;;;;;;;4.73;1.87;;;10.20;99.90;;;;;;5028143;28;20799;-69
2024/01/01 11:34:28;;;;;;;11.43;2.10;;;9.90;99.90;;;;;;5053428;28;20436;-69
2024/01/01 11:36:54;;;;;;;4.30;1.57;;;9.50;99.90;;;;;;5053313;28;20435;-69
2024/01/01 11:39:24;;;;;;;4.00;1.50;;;9.30;99.90;;;;;;5053335;28;20182;-68
2024/01/01 11:41:50;;;;;;;7.87;2.00;;;9.40;99.90;;;;;;5053320;28;20222;-69
2024/01/01 11:44:17;;;;;;;6.53;1.97;;;9.40;99.90;;;;;;5053181;28;20779;-69
2024/01/01 11:46:45;;;;;;;9.07;2.13;;;9.60;99.90;;;;;;5052912;28;20424;-69
2024/01/01 11:49:11;;;;;;;3.53;1.63;;;10.00;99.90;;;;;;5053124;28;20479;-69
2024/01/01 11:51:55;;;;;;;8.80;2.23;;;10.00;99.90;;;;;;5053139;28;20443;-69
2024/01/01 11:54:25;;;;;;;5.10;2.00;;;10.30;99.90;;;;;;5053220;28;20530;-69
2024/01/01 11:56:54;;;;;;;4.57;1.90;;;11.00;99.90;;;;;;5052881;28;20419;-69
2024/01/01 11:59:22;;;;;;;3.67;1.60;;;12.40;99.90;;;;;;5052988;28;20424;-69
2024/01/01 12:01:48;;;;;;;3.33;2.17;;;13.00;99.90;;;;;;5052987;28;20469;-69
2024/01/01 12:04:14;;;;;;;3.93;1.80;;;13.30;99.90;;;;;;5052680;28;20424;-69
2024/01/01 12:06:40;;;;;;;1.73;1.07;;;13.40;99.40;;;;;;5053167;28;20435;-70
2024/01/01 12:09:07;;;;;;;5.20;1.90;;;14.10;96.70;;;;;;5052779;28;20491;-69
2024/01/01 12:11:33;;;;;;;3.07;1.90;;;14.40;93.80;;;;;;5052960;28;20178;-70
2024/01/01 12:13:59;;;;;;;7.27;2.03;;;13.60;95.80;;;;;;5053133;28;20975;-69
2024/01/01 12:16:26;;;;;;;2.87;1.80;;;12.20;99.60;;;;;;5052099;28;20436;-70
2024/01/01 12:18:59;;;;;;;4.60;2.33;;;11.30;99.90;;;;;;5052614;28;20944;-70
2024/01/01 12:21:35;;;;;;;4.43;2.00;;;10.80;99.90;;;;;;5052582;28;20498;-69
2024/01/01 12:24:03;;;;;;;4.23;1.40;;;10.40;99.90;;;;;;5052511;28;20416;-70
2024/01/01 12:26:29;;;;;;;6.00;1.43;;;10.40;99.90;;;;;;5052112;28;20539;-70
2024/01/01 12:29:12;;;;;;;2.77;2.00;;;10.20;99.90;;;;;;5052354;28;20551;-69
2024/01/01 12:31:42;;;;;;;5.10;1.67;;;10.40;99.90;;;;;;5052458;28;20172;-70
2024/01/01 12:34:12;;;;;;;2.60;1.53;;;10.40;99.90;;;;;;5034562;28;20469;-70
2024/01/01 12:36:38;;;;;;;6.00;2.43;;;10.40;99.90;;;;;;5052117;28;20423;-70
2024/01/01 12:39:04;;;;;;;5.97;2.00;;;10.50;99.90;;;;;;5052256;28;20431;-70
2024/01/01 12:41:30;;;;;;;5.87;1.70;;;11.10;99.90;;;;;;5052426;28;20935;-70
2024/01/01 12:44:00;;;;;;;7.13;2.17;;;11.50;99.90;;;;;;5052424;28;20905;-70
2024/01/01 12:46:26;;;;;;;7.00;2.57;;;11.30;99.90;;;;;;5033865;28;20448;-69
2024/01/01 12:48:52;;;;;;;3.60;1.50;;;10.80;99.90;;;;;;5052108;28;20451;-69
2024/01/01 12:51:20;;;;;;;6.27;1.60;;;10.40;99.90;;;;;;5052163;28;20430;-69